createdAt,value
2022-08-30T00:00:15.536Z,5.57
2022-08-30T00:02:43.592Z,5.60
2022-08-30T00:05:12.107Z,5.68
2022-08-30T00:07:39.529Z,5.88
2022-08-30T00:10:07.280Z,6.05
2022-08-30T00:12:35.952Z,5.95
2022-08-30T00:15:04.470Z,6.20
2022-08-30T00:17:31.879Z,5.97
2022-08-30T00:19:59.439Z,5.82
2022-08-30T00:22:26.889Z,6.00
2022-08-30T00:24:55.103Z,6.18
2022-08-30T00:27:22.531Z,6.10
2022-08-30T00:29:50.023Z,6.07
2022-08-30T00:32:21.353Z,5.60
2022-08-30T00:34:49.761Z,5.90
2022-08-30T00:37:17.178Z,5.88
2022-08-30T00:39:44.591Z,5.72
2022-08-30T00:42:12.956Z,5.75
2022-08-30T00:44:40.963Z,5.80
2022-08-30T00:47:08.419Z,5.93
2022-08-30T00:49:39.831Z,5.88
2022-08-30T00:52:07.455Z,5.47
2022-08-30T00:54:36.048Z,5.95
2022-08-30T00:57:04.198Z,5.40
2022-08-30T00:59:31.731Z,5.85
2022-08-30T01:02:02.456Z,6.18
2022-08-30T01:04:30.670Z,5.95
2022-08-30T01:06:58.119Z,5.68
2022-08-30T01:09:25.543Z,5.88
2022-08-30T01:11:53.088Z,6.35
2022-08-30T01:14:22.146Z,6.35
2022-08-30T01:16:55.165Z,6.03
2022-08-30T01:19:55.927Z,6.18
2022-08-30T01:22:51.286Z,6.15
2022-08-30T01:25:27.683Z,6.05
2022-08-30T01:28:07.884Z,5.85
2022-08-30T01:30:35.502Z,5.95
2022-08-30T01:33:03.699Z,5.70
2022-08-30T01:35:56.435Z,6.03
2022-08-30T01:38:29.087Z,6.55
2022-08-30T01:41:14.356Z,5.90
2022-08-30T01:43:41.907Z,6.47
2022-08-30T01:46:11.986Z,6.07
2022-08-30T01:48:50.255Z,5.78
2022-08-30T01:51:22.112Z,5.82
2022-08-30T01:53:49.688Z,6.05
2022-08-30T01:56:17.263Z,6.53
2022-08-30T01:58:44.803Z,5.68
2022-08-30T02:01:13.838Z,5.85
2022-08-30T02:03:41.986Z,6.15
2022-08-30T02:06:11.353Z,6.30
2022-08-30T02:08:40.304Z,5.75
2022-08-30T02:11:07.779Z,5.90
2022-08-30T02:13:35.505Z,6.05
2022-08-30T02:16:03.358Z,5.85
2022-08-30T02:18:32.289Z,5.78
2022-08-30T02:20:59.742Z,5.70
2022-08-30T02:23:27.483Z,5.72
2022-08-30T02:25:54.909Z,5.80
2022-08-30T02:28:22.620Z,6.30
2022-08-30T02:30:52.329Z,5.93
2022-08-30T02:33:20.631Z,6.00
2022-08-30T02:35:48.135Z,5.00
2022-08-30T02:38:15.569Z,5.57
2022-08-30T02:40:47.670Z,5.80
2022-08-30T02:43:15.593Z,6.35
2022-08-30T02:45:43.223Z,6.07
2022-08-30T02:48:10.634Z,5.68
2022-08-30T02:50:44.844Z,5.82
2022-08-30T02:55:43.563Z,5.82
2022-08-30T02:58:11.189Z,5.75
2022-08-30T03:00:38.850Z,5.10
2022-08-30T03:03:07.493Z,5.97
2022-08-30T03:05:35.095Z,6.03
2022-08-30T03:08:05.314Z,5.80
2022-08-30T03:10:32.852Z,5.50
2022-08-30T03:13:00.347Z,6.13
2022-08-30T03:15:28.033Z,6.13
2022-08-30T03:17:55.613Z,6.10
2022-08-30T03:20:23.861Z,5.78
2022-08-30T03:22:51.350Z,5.60
2022-08-30T03:25:20.654Z,5.53
2022-08-30T03:27:48.423Z,5.20
2022-08-30T03:30:17.799Z,5.53
2022-08-30T03:32:45.313Z,6.00
2022-08-30T03:35:16.179Z,5.53
2022-08-30T03:37:43.885Z,5.68
2022-08-30T03:40:15.124Z,5.57
2022-08-30T03:42:43.436Z,5.50
2022-08-30T03:45:11.932Z,5.53
2022-08-30T03:47:39.402Z,5.55
2022-08-30T03:50:09.965Z,5.38
2022-08-30T03:52:37.394Z,5.80
2022-08-30T03:55:05.646Z,5.85
2022-08-30T03:57:33.803Z,5.78
2022-08-30T04:00:04.776Z,5.70
2022-08-30T04:02:39.281Z,5.50
2022-08-30T04:05:07.388Z,6.00
2022-08-30T04:07:35.019Z,5.38
2022-08-30T04:10:03.552Z,6.07
2022-08-30T04:12:30.989Z,5.47
2022-08-30T04:14:58.580Z,5.88
2022-08-30T04:17:25.963Z,5.47
2022-08-30T04:19:53.581Z,5.38
2022-08-30T04:22:22.026Z,5.38
2022-08-30T04:24:49.413Z,5.75
2022-08-30T04:27:20.215Z,5.50
2022-08-30T04:29:48.402Z,5.32
2022-08-30T04:32:16.673Z,5.60
2022-08-30T04:34:44.165Z,5.47
2022-08-30T04:37:11.582Z,5.55
2022-08-30T04:39:39.582Z,5.00
2022-08-30T04:42:07.083Z,5.03
2022-08-30T04:44:34.852Z,5.03
2022-08-30T04:47:03.099Z,4.88
2022-08-30T04:49:32.960Z,4.68
2022-08-30T04:52:03.580Z,4.60
2022-08-30T04:54:31.019Z,4.60
2022-08-30T04:56:58.448Z,4.50
2022-08-30T04:59:25.934Z,4.60
2022-08-30T05:01:56.080Z,4.82
2022-08-30T05:04:23.577Z,4.53
2022-08-30T05:06:51.021Z,4.40
2022-08-30T05:09:18.812Z,4.53
2022-08-30T05:11:47.024Z,4.28
2022-08-30T05:14:14.550Z,4.50
2022-08-30T05:16:42.204Z,4.15
2022-08-30T05:19:09.682Z,4.22
2022-08-30T05:21:37.281Z,4.18
2022-08-30T05:24:04.891Z,4.32
2022-08-30T05:26:34.624Z,4.22
2022-08-30T05:29:04.899Z,4.25
2022-08-30T05:31:34.515Z,4.35
2022-08-30T05:34:02.339Z,4.00
2022-08-30T05:36:31.143Z,4.18
2022-08-30T05:39:01.263Z,4.40
2022-08-30T05:41:28.933Z,3.92
2022-08-30T05:44:00.111Z,4.20
2022-08-30T05:46:29.652Z,4.40
2022-08-30T05:48:57.484Z,4.10
2022-08-30T05:51:26.135Z,4.78
2022-08-30T05:53:53.737Z,4.18
2022-08-30T05:56:25.972Z,4.03
2022-08-30T05:58:54.300Z,3.97
2022-08-30T06:01:34.596Z,4.10
2022-08-30T06:04:04.167Z,4.20
2022-08-30T06:06:33.035Z,4.30
2022-08-30T06:09:00.528Z,3.80
2022-08-30T06:11:28.335Z,4.20
2022-08-30T06:13:55.919Z,4.00
2022-08-30T06:16:26.270Z,3.90
2022-08-30T06:18:54.091Z,3.97
2022-08-30T06:21:26.568Z,3.85
2022-08-30T06:23:54.401Z,3.95
2022-08-30T06:26:22.220Z,4.50
2022-08-30T06:28:52.836Z,3.78
2022-08-30T06:31:20.892Z,4.00
2022-08-30T06:33:48.539Z,4.13
2022-08-30T06:36:19.145Z,3.53
2022-08-30T06:38:47.157Z,3.67
2022-08-30T06:41:15.992Z,4.05
2022-08-30T06:43:48.673Z,3.60
2022-08-30T06:46:28.017Z,3.70
2022-08-30T06:48:56.290Z,3.60
2022-08-30T06:51:29.754Z,4.22
2022-08-30T06:53:59.707Z,3.58
2022-08-30T06:56:27.582Z,3.90
2022-08-30T06:58:55.146Z,3.65
2022-08-30T07:01:26.878Z,3.50
2022-08-30T07:03:55.475Z,3.40
2022-08-30T07:06:23.502Z,3.90
2022-08-30T07:08:54.820Z,3.65
2022-08-30T07:11:28.943Z,3.78
2022-08-30T07:13:56.499Z,3.85
2022-08-30T07:16:23.959Z,3.85
2022-08-30T07:18:51.463Z,3.92
2022-08-30T07:21:25.809Z,3.65
2022-08-30T07:23:54.259Z,3.83
2022-08-30T07:26:25.139Z,3.72
2022-08-30T07:28:56.100Z,3.95
2022-08-30T07:31:23.843Z,3.80
2022-08-30T07:33:51.930Z,3.60
2022-08-30T07:36:19.457Z,3.78
2022-08-30T07:38:46.991Z,3.42
2022-08-30T07:41:29.123Z,3.78
2022-08-30T07:43:59.917Z,3.42
2022-08-30T07:46:30.546Z,3.40
2022-08-30T07:48:59.785Z,3.80
2022-08-30T07:51:29.366Z,3.80
2022-08-30T07:53:57.332Z,3.60
2022-08-30T07:56:24.815Z,3.63
2022-08-30T07:58:52.542Z,3.58
2022-08-30T08:01:20.496Z,3.50
2022-08-30T08:03:50.280Z,3.70
2022-08-30T08:06:19.742Z,3.65
2022-08-30T08:08:50.387Z,3.50
2022-08-30T08:11:28.359Z,3.40
2022-08-30T08:13:57.979Z,3.38
2022-08-30T08:16:26.875Z,3.40
2022-08-30T08:18:54.793Z,3.42
2022-08-30T08:21:22.750Z,3.83
2022-08-30T08:23:50.318Z,3.92
2022-08-30T08:26:18.378Z,3.55
2022-08-30T08:28:47.126Z,3.50
2022-08-30T08:31:16.338Z,3.78
2022-08-30T08:33:44.219Z,3.78
2022-08-30T08:36:11.687Z,3.20
2022-08-30T08:38:39.878Z,4.20
2022-08-30T08:41:18.510Z,3.63
2022-08-30T08:43:45.910Z,3.60
2022-08-30T08:46:22.443Z,3.58
2022-08-30T08:48:59.919Z,3.05
2022-08-30T08:51:51.784Z,3.80
2022-08-30T08:54:24.946Z,3.70
2022-08-30T08:56:55.095Z,3.55
2022-08-30T08:59:22.773Z,3.15
2022-08-30T09:01:50.946Z,2.97
2022-08-30T09:04:22.478Z,3.40
2022-08-30T09:06:58.699Z,3.25
2022-08-30T09:09:52.456Z,3.80
2022-08-30T09:12:21.034Z,3.40
2022-08-30T09:14:55.373Z,3.17
2022-08-30T09:17:23.341Z,3.57
2022-08-30T09:19:54.099Z,3.42
2022-08-30T09:22:38.997Z,3.40
2022-08-30T09:25:06.740Z,3.42
2022-08-30T09:27:44.090Z,3.50
2022-08-30T09:30:27.193Z,3.30
2022-08-30T09:33:02.645Z,3.70
2022-08-30T09:35:41.708Z,3.33
2022-08-30T09:38:26.489Z,3.30
2022-08-30T09:40:55.342Z,3.80
2022-08-30T09:43:25.646Z,3.65
2022-08-30T09:46:02.158Z,3.58
2022-08-30T09:48:40.641Z,3.22
2022-08-30T09:51:13.758Z,3.55
2022-08-30T09:54:07.319Z,3.17
2022-08-30T09:57:12.479Z,3.42
2022-08-30T10:00:01.972Z,3.63
2022-08-30T10:02:59.364Z,3.45
2022-08-30T10:08:47.980Z,3.80
2022-08-30T10:11:18.165Z,3.58
2022-08-30T10:13:51.612Z,3.30
2022-08-30T10:16:22.459Z,3.70
2022-08-30T10:18:57.841Z,3.30
2022-08-30T10:21:53.807Z,3.67
2022-08-30T10:24:24.350Z,3.75
2022-08-30T10:26:58.879Z,3.65
2022-08-30T10:29:42.455Z,3.33
2022-08-30T10:34:41.261Z,3.97
2022-08-30T10:37:20.039Z,3.72
2022-08-30T10:39:56.359Z,4.20
2022-08-30T10:42:30.759Z,4.10
2022-08-30T10:48:02.643Z,3.67
2022-08-30T10:50:37.134Z,3.97
2022-08-30T10:53:06.386Z,4.03
2022-08-30T10:55:35.810Z,4.10
2022-08-30T10:58:04.807Z,3.60
2022-08-30T11:00:38.296Z,3.75
2022-08-30T11:03:32.109Z,4.07
2022-08-30T11:06:27.175Z,4.18
2022-08-30T11:09:25.675Z,3.72
2022-08-30T11:12:26.439Z,3.95
2022-08-30T11:14:53.931Z,4.03
2022-08-30T11:17:31.267Z,4.28
2022-08-30T11:20:00.467Z,3.92
2022-08-30T11:22:36.843Z,3.85
2022-08-30T11:25:15.942Z,4.55
2022-08-30T11:27:53.649Z,4.50
2022-08-30T11:30:24.394Z,4.15
2022-08-30T11:32:59.159Z,4.07
2022-08-30T11:35:48.463Z,4.15
2022-08-30T11:38:20.519Z,4.20
2022-08-30T11:40:50.617Z,3.70
2022-08-30T11:43:40.283Z,4.30
2022-08-30T11:46:20.106Z,4.32
2022-08-30T11:49:15.064Z,4.30
2022-08-30T11:55:12.614Z,4.22
2022-08-30T11:57:56.225Z,4.22
2022-08-30T12:00:34.199Z,4.07
2022-08-30T12:03:08.144Z,4.13
2022-08-30T12:05:39.535Z,3.77
2022-08-30T12:08:38.598Z,4.20
2022-08-30T12:11:12.391Z,4.07
2022-08-30T12:13:42.669Z,4.07
2022-08-30T12:16:19.958Z,4.03
2022-08-30T12:19:00.215Z,4.00
2022-08-30T12:21:33.436Z,4.20
2022-08-30T12:24:25.237Z,3.95
2022-08-30T12:26:53.051Z,4.38
2022-08-30T12:29:27.455Z,4.20
2022-08-30T12:31:56.044Z,3.95
2022-08-30T12:34:28.715Z,4.07
2022-08-30T12:37:03.054Z,3.88
2022-08-30T12:39:39.515Z,4.15
2022-08-30T12:42:19.141Z,3.88
2022-08-30T12:44:47.776Z,4.50
2022-08-30T12:47:18.095Z,4.10
2022-08-30T12:49:46.381Z,3.78
2022-08-30T12:52:16.796Z,3.78
2022-08-30T12:54:45.300Z,4.38
2022-08-30T12:57:34.292Z,4.40
2022-08-30T13:00:01.722Z,4.65
2022-08-30T13:02:52.808Z,4.50
2022-08-30T13:05:45.637Z,4.20
2022-08-30T13:08:35.800Z,4.60
2022-08-30T13:11:08.530Z,4.40
2022-08-30T13:14:05.628Z,4.50
2022-08-30T13:16:37.196Z,4.43
2022-08-30T13:19:28.208Z,4.65
2022-08-30T13:21:57.241Z,3.97
2022-08-30T13:24:25.849Z,3.75
2022-08-30T13:26:58.419Z,4.78
2022-08-30T13:31:55.254Z,4.35
2022-08-30T13:34:23.536Z,4.40
2022-08-30T13:36:54.743Z,3.92
2022-08-30T13:39:22.383Z,4.22
2022-08-30T13:41:52.440Z,4.40
2022-08-30T13:44:19.980Z,4.50
2022-08-30T13:46:55.374Z,4.75
2022-08-30T13:49:45.512Z,4.45
2022-08-30T13:52:22.906Z,4.10
2022-08-30T13:54:51.839Z,4.35
2022-08-30T14:00:12.594Z,4.60
2022-08-30T14:02:46.362Z,4.20
2022-08-30T14:05:37.447Z,3.93
2022-08-30T14:08:04.058Z,4.63
2022-08-30T14:10:32.546Z,4.20
2022-08-30T14:13:08.583Z,4.20
2022-08-30T14:15:38.815Z,4.15
2022-08-30T14:18:06.733Z,4.25
2022-08-30T14:20:38.331Z,4.50
2022-08-30T14:23:09.892Z,4.50
2022-08-30T14:25:40.278Z,4.25
2022-08-30T14:28:09.682Z,4.45
2022-08-30T14:30:38.851Z,4.40
2022-08-30T14:33:06.869Z,4.57
2022-08-30T14:35:36.515Z,4.03
2022-08-30T14:38:04.327Z,4.82
2022-08-30T14:40:33.576Z,4.65
2022-08-30T14:43:05.282Z,4.90
2022-08-30T14:45:32.727Z,4.40
2022-08-30T14:48:11.469Z,4.68
2022-08-30T14:50:40.103Z,4.82
2022-08-30T14:53:07.653Z,5.10
2022-08-30T14:55:35.582Z,4.70
2022-08-30T14:58:03.055Z,4.53
2022-08-30T15:00:31.651Z,4.45
2022-08-30T15:02:59.148Z,4.10
2022-08-30T15:05:26.615Z,4.28
2022-08-30T15:07:54.171Z,4.70
2022-08-30T15:10:22.685Z,4.50
2022-08-30T15:12:53.812Z,4.47
2022-08-30T15:15:21.588Z,4.63
2022-08-30T15:17:49.094Z,5.25
2022-08-30T15:20:18.897Z,4.50
2022-08-30T15:22:46.569Z,4.53
2022-08-30T15:25:14.078Z,4.57
2022-08-30T15:27:41.486Z,4.55
2022-08-30T15:30:11.083Z,4.40
2022-08-30T15:32:38.714Z,4.80
2022-08-30T15:35:07.857Z,5.13
2022-08-30T15:37:37.543Z,4.10
2022-08-30T15:40:06.331Z,4.40
2022-08-30T15:42:33.811Z,4.90
2022-08-30T15:45:01.251Z,4.53
2022-08-30T15:47:28.725Z,4.57
2022-08-30T15:49:58.119Z,4.22
2022-08-30T15:52:25.751Z,4.80
2022-08-30T15:54:54.540Z,4.80
2022-08-30T15:57:22.191Z,4.60
2022-08-30T15:59:52.895Z,4.80
2022-08-30T16:02:21.255Z,4.90
2022-08-30T16:04:55.043Z,4.90
2022-08-30T16:07:22.522Z,4.75
2022-08-30T16:09:49.942Z,4.80
2022-08-30T16:12:23.591Z,5.03
2022-08-30T16:14:51.742Z,5.10
2022-08-30T16:17:19.215Z,4.80
2022-08-30T16:19:46.664Z,4.60
2022-08-30T16:22:15.831Z,4.75
2022-08-30T16:24:49.776Z,4.90
2022-08-30T16:27:17.219Z,5.32
2022-08-30T16:29:44.627Z,4.60
2022-08-30T16:32:12.048Z,4.70
2022-08-30T16:34:39.512Z,5.03
2022-08-30T16:37:06.906Z,5.00
2022-08-30T16:39:34.949Z,4.50
2022-08-30T16:42:03.311Z,4.65
2022-08-30T16:44:31.758Z,4.72
2022-08-30T16:46:59.218Z,4.35
2022-08-30T16:49:26.658Z,4.97
2022-08-30T16:51:54.124Z,4.72
2022-08-30T16:54:21.853Z,4.28
2022-08-30T16:56:49.640Z,4.50
2022-08-30T16:59:18.960Z,5.18
2022-08-30T17:01:46.538Z,4.78
2022-08-30T17:04:18.589Z,4.80
2022-08-30T17:06:49.666Z,4.45
2022-08-30T17:09:17.966Z,5.15
2022-08-30T17:11:45.583Z,5.00
2022-08-30T17:14:13.106Z,4.80
2022-08-30T17:16:42.161Z,4.93
2022-08-30T17:19:12.735Z,5.68
2022-08-30T17:21:40.204Z,4.97
2022-08-30T17:24:07.711Z,5.00
2022-08-30T17:26:36.071Z,4.90
2022-08-30T17:29:04.238Z,4.93
2022-08-30T17:31:31.831Z,5.07
2022-08-30T17:34:05.763Z,5.47
2022-08-30T17:36:35.614Z,5.18
2022-08-30T17:39:10.730Z,5.43
2022-08-30T17:41:45.188Z,5.10
2022-08-30T17:44:21.739Z,5.13
2022-08-30T17:46:53.189Z,5.20
2022-08-30T17:49:21.304Z,5.13
2022-08-30T17:51:52.918Z,5.30
2022-08-30T17:54:24.537Z,5.15
2022-08-30T17:56:53.875Z,5.05
2022-08-30T17:59:25.247Z,5.03
2022-08-30T18:01:53.895Z,5.65
2022-08-30T18:04:22.110Z,5.13
2022-08-30T18:06:53.075Z,5.50
2022-08-30T18:09:20.586Z,5.20
2022-08-30T18:11:48.799Z,5.10
2022-08-30T18:14:16.395Z,5.82
2022-08-30T18:16:53.453Z,5.68
2022-08-30T18:19:25.586Z,5.38
2022-08-30T18:21:53.357Z,5.47
2022-08-30T18:24:21.226Z,5.45
2022-08-30T18:26:48.970Z,5.05
2022-08-30T18:29:22.481Z,5.40
2022-08-30T18:31:59.067Z,5.70
2022-08-30T18:34:26.537Z,5.30
2022-08-30T18:36:54.385Z,5.68
2022-08-30T18:39:22.232Z,5.50
2022-08-30T18:41:50.988Z,5.00
2022-08-30T18:44:28.244Z,4.95
2022-08-30T18:46:57.659Z,5.30
2022-08-30T18:49:26.013Z,5.95
2022-08-30T18:51:53.564Z,5.82
2022-08-30T18:54:21.061Z,5.20
2022-08-30T18:56:48.518Z,5.43
2022-08-30T18:59:17.330Z,5.93
2022-08-30T19:01:46.576Z,5.32
2022-08-30T19:04:29.521Z,5.40
2022-08-30T19:07:03.478Z,5.28
2022-08-30T19:09:31.222Z,6.03
2022-08-30T19:12:01.203Z,5.70
2022-08-30T19:14:28.711Z,5.18
2022-08-30T19:17:02.028Z,5.70
2022-08-30T19:19:32.259Z,5.93
2022-08-30T19:22:02.150Z,5.50
2022-08-30T19:24:29.530Z,5.43
2022-08-30T19:26:57.791Z,5.50
2022-08-30T19:29:25.301Z,5.28
2022-08-30T19:31:53.764Z,6.30
2022-08-30T19:34:21.293Z,5.60
2022-08-30T19:36:49.376Z,5.40
2022-08-30T19:39:16.990Z,5.80
2022-08-30T19:41:47.863Z,5.47
2022-08-30T19:44:15.389Z,5.43
2022-08-30T19:46:42.956Z,6.10
2022-08-30T19:49:12.345Z,5.65
2022-08-30T19:51:46.582Z,6.03
2022-08-30T19:54:14.836Z,5.68
2022-08-30T19:56:42.367Z,5.95
2022-08-30T19:59:09.854Z,5.90
2022-08-30T20:01:40.800Z,5.53
2022-08-30T20:04:08.276Z,5.97
2022-08-30T20:06:39.023Z,6.28
2022-08-30T20:09:06.988Z,6.45
2022-08-30T20:11:38.953Z,5.55
2022-08-30T20:14:07.188Z,6.53
2022-08-30T20:16:37.304Z,5.40
2022-08-30T20:19:06.688Z,5.97
2022-08-30T20:21:34.206Z,6.10
2022-08-30T20:24:03.979Z,5.78
2022-08-30T20:26:34.337Z,6.30
2022-08-30T20:29:02.541Z,6.28
2022-08-30T20:31:30.039Z,6.40
2022-08-30T20:33:58.846Z,6.43
2022-08-30T20:36:26.372Z,6.25
2022-08-30T20:38:54.693Z,5.97
2022-08-30T20:41:23.302Z,6.15
2022-08-30T20:43:54.592Z,6.00
2022-08-30T20:46:22.074Z,6.30
2022-08-30T20:48:49.463Z,5.93
2022-08-30T20:51:18.375Z,6.18
2022-08-30T20:53:45.793Z,5.90
2022-08-30T20:56:17.490Z,6.20
2022-08-30T20:58:47.355Z,5.93
2022-08-30T21:01:15.921Z,5.95
2022-08-30T21:03:44.292Z,6.00
2022-08-30T21:06:14.339Z,5.60
2022-08-30T21:08:41.799Z,5.60
2022-08-30T21:11:09.294Z,5.97
2022-08-30T21:13:37.232Z,5.85
2022-08-30T21:16:04.919Z,5.60
2022-08-30T21:18:34.003Z,5.38
2022-08-30T21:21:22.189Z,6.13
2022-08-30T21:23:49.875Z,5.63
2022-08-30T21:26:17.782Z,5.18
2022-08-30T21:28:49.102Z,4.88
2022-08-30T21:31:18.533Z,5.38
2022-08-30T21:33:47.051Z,5.03
2022-08-30T21:36:33.251Z,5.22
2022-08-30T21:39:04.020Z,5.05
2022-08-30T21:41:31.765Z,4.80
2022-08-30T21:44:01.176Z,5.20
2022-08-30T21:46:29.010Z,5.22
2022-08-30T21:48:57.910Z,5.28
2022-08-30T21:51:27.618Z,4.80
2022-08-30T21:53:55.057Z,5.30
2022-08-30T21:56:23.307Z,5.20
2022-08-30T21:58:50.768Z,4.40
2022-08-30T22:01:23.599Z,4.70
2022-08-30T22:03:52.113Z,5.13
2022-08-30T22:06:19.656Z,5.10
2022-08-30T22:08:47.251Z,5.40
2022-08-30T22:11:19.732Z,4.80
2022-08-30T22:13:50.129Z,4.57
2022-08-30T22:16:17.709Z,4.93
2022-08-30T22:18:45.481Z,5.10
2022-08-30T22:21:16.390Z,5.10
2022-08-30T22:23:45.048Z,5.15
2022-08-30T22:26:14.330Z,4.72
2022-08-30T22:28:42.914Z,4.75
2022-08-30T22:31:11.528Z,4.80
2022-08-30T22:33:44.751Z,5.18
2022-08-30T22:36:16.707Z,4.88
2022-08-30T22:38:44.524Z,5.80
2022-08-30T22:41:17.097Z,5.13
2022-08-30T22:43:44.479Z,4.72
2022-08-30T22:46:12.054Z,4.88
2022-08-30T22:48:41.259Z,4.85
2022-08-30T22:51:09.789Z,5.20
2022-08-30T22:53:37.275Z,5.03
2022-08-30T22:56:13.338Z,5.18
2022-08-30T22:58:40.897Z,5.07
2022-08-30T23:01:08.495Z,5.00
2022-08-30T23:03:36.058Z,5.53
2022-08-30T23:06:03.560Z,5.05
2022-08-30T23:08:31.060Z,5.35
2022-08-30T23:10:58.602Z,4.68
2022-08-30T23:13:26.143Z,5.40
2022-08-30T23:15:53.584Z,5.65
2022-08-30T23:18:21.031Z,5.10
2022-08-30T23:20:48.492Z,5.00
2022-08-30T23:23:34.612Z,5.03
2022-08-30T23:26:20.759Z,5.28
2022-08-30T23:29:06.799Z,5.32
2022-08-30T23:31:53.209Z,5.15
2022-08-30T23:34:39.474Z,5.15
2022-08-30T23:37:25.815Z,5.40
2022-08-30T23:40:11.590Z,4.97
2022-08-30T23:42:58.040Z,4.97
2022-08-30T23:45:44.310Z,5.75
2022-08-30T23:48:30.432Z,5.03
2022-08-30T23:51:22.139Z,4.80
2022-08-30T23:54:08.551Z,5.38
2022-08-30T23:56:56.118Z,5.13
2022-08-30T23:59:42.624Z,5.40
